Glen Allan, MS

3:40 PM CDT on May 04, 2015 (GMT -0500)
Lake Hall Rd near Fawnwood Comm Ctr | | Change Station
CLOSE
Current Station
Personal Weather Station
Location: Lake Village, AR
Elevation: 118 ft
Nearby Weather Stations

Elev 118 ft 33.28 °N, 91.24 °W | Updated 7 minutes ago

Partly Cloudy
Partly Cloudy
85.4 °F
Feels Like 84 °F
N
1.0
Wind Variable Wind from SE
Gusts 4.0 mph

Today
High -- | Low -- °F
--% Chance of Precip.
Yesterday
High -- | Low -- °F
Precip. -- in
6:13 AM 7:48 PM
Waxing Gibbous, 99% visible
Pressure 30.17 in
Visibility 10.0 miles
Clouds Clear
Heat Index 84 °F
Dew Point 57 °F
Humidity 38%
Rainfall 0.00 in
Snow Depth Not available.
UV 10 out of 12
Pollen 7.40 out of 12
Air Quality Not available.
Flu Activity No Activity
METAR KGLH 041953Z AUTO VRB05G14KT 10SM CLR 28/11 A3015 RMK AO2 SLP214 T02780106

More Conditions Fewer Conditions

Pressure 30.17 in
Visibility 10.0 miles
Clouds Clear
Heat Index 84 °F
Dew Point 57 °F
Humidity 38%
Rainfall 0.00 in
Snow Depth Not available.
UV 10 out of 12
Pollen 7.40 out of 12
Air Quality Not available.
Flu Activity No Activity
METAR KGLH 041953Z AUTO VRB05G14KT 10SM CLR 28/11 A3015 RMK AO2 SLP214 T02780106

More Conditions Fewer Conditions

Nepal has a long way to go to dig out and rebuild from a devastating earthquake. We have teamed up with several charities and organizations to make contributing to the relief effort as easy as possible.
How you can help: Portlight Strategies | Red Cross

10-Day Weather Forecast

Almanac

Astronomy

May. 04, 2015 Rise Set
Actual Time
Civil Twilight
Nautical Twilight
Astronomical Twilight
Moon
Length of Visible Light
Length of Day
Tomorrow will be .
, % of the Moon is Illuminated

Today's Extremes

State Highs State Lows

Community

WunderPhotos

Upload Photos

1,818,696 photos uploaded!

WunderBlogs® & News

Nearby

Air Quality

  Air Quality AQ Index Pollutant
Not available.

Snow Depth

Station Depth Elevation

Earthquake Activity

City Distance Mag. Time & Date
Minimum magnitude displayed is 2.5.

Coastal Water Temperatures

Place Temperature

Stations

Nearby Weather Stations

Station Location Temp. Windchill Dew Point Humidity Wind Precip. Elev Updated Type